Time;durP1;ratioP1;P1;durP2;ratioP2;P2;SDS_P1;SDS_P2;PMS_P1;PMS_P2;Temp;Humidity;BMP_temperature;BMP_pressure;BME280_temperature;BME280_humidity;BME280_pressure;Samples;Min_cycle;Max_cycle;Signal;HPM_P1;HPM_P2
2022/09/07 00:02:18;;;;;;;2.53;0.85;;;;;;;25.27;48.73;101012.69;5052993;28;20036;-60
2022/09/07 00:04:43;;;;;;;4.00;0.93;;;;;;;25.31;48.94;101013.09;5052072;28;20494;-60
2022/09/07 00:07:09;;;;;;;1.45;0.70;;;;;;;25.35;48.78;101017.91;5052837;28;20044;-60
2022/09/07 00:09:34;;;;;;;0.77;0.60;;;;;;;25.39;48.76;101012.84;5051727;28;20036;-60
2022/09/07 00:12:00;;;;;;;1.45;0.50;;;;;;;25.37;48.37;100987.53;5053020;28;20032;-60
2022/09/07 00:14:25;;;;;;;1.10;0.50;;;;;;;25.41;48.33;100997.84;5052856;28;20021;-60
2022/09/07 00:16:51;;;;;;;1.13;0.77;;;;;;;25.43;48.83;100989.41;5052684;28;20044;-60
2022/09/07 00:19:16;;;;;;;3.35;0.68;;;;;;;25.43;48.77;100992.16;5052875;28;20021;-60
2022/09/07 00:21:41;;;;;;;1.60;0.85;;;;;;;25.44;48.42;100985.56;5052610;28;20040;-61
2022/09/07 00:24:07;;;;;;;1.50;0.98;;;;;;;25.45;48.52;100981.78;5056352;28;20474;-60
2022/09/07 00:26:32;;;;;;;0.70;0.50;;;;;;;25.44;48.69;100986.41;5056571;28;20120;-60
2022/09/07 00:28:59;;;;;;;1.25;1.15;;;;;;;25.47;48.95;100985.16;5056752;28;20044;-61
2022/09/07 00:31:25;;;;;;;2.25;0.80;;;;;;;25.48;48.94;100986.84;5056847;28;20394;-61
2022/09/07 00:33:52;;;;;;;2.17;0.88;;;;;;;25.49;48.66;100991.25;5056592;28;20026;-60
2022/09/07 00:36:19;;;;;;;2.38;1.38;;;;;;;25.52;48.69;100998.22;5055360;28;20501;-60
2022/09/07 00:38:44;;;;;;;1.17;0.57;;;;;;;25.54;48.33;101002.44;5055507;28;20374;-60
2022/09/07 00:41:10;;;;;;;1.90;0.63;;;;;;;25.56;48.64;101007.69;5056138;28;20032;-60
2022/09/07 00:43:49;;;;;;;1.42;0.52;;;;;;;25.59;48.92;101010.84;5055173;28;20036;-60
2022/09/07 00:46:19;;;;;;;0.30;0.30;;;;;;;25.62;48.35;101010.38;5055035;28;20047;-60
2022/09/07 00:49:07;;;;;;;0.90;0.77;;;;;;;25.61;48.38;101008.69;5054958;28;20028;-61
2022/09/07 00:51:50;;;;;;;2.33;0.60;;;;;;;25.63;49.03;101003.81;5056218;28;20028;-60
2022/09/07 00:54:19;;;;;;;0.90;0.60;;;;;;;25.62;48.62;100996.66;5054831;28;20497;-60
2022/09/07 00:56:46;;;;;;;0.65;0.47;;;;;;;25.60;48.45;100986.97;5056089;28;20094;-60
2022/09/07 00:59:14;;;;;;;2.65;0.77;;;;;;;25.61;48.28;100984.00;5054837;28;20492;-60
2022/09/07 01:01:39;;;;;;;1.08;0.63;;;;;;;25.51;48.23;100969.09;5054820;28;20032;-60
2022/09/07 01:04:05;;;;;;;3.58;0.50;;;;;;;25.61;48.78;100991.38;5054841;28;20025;-60
2022/09/07 01:06:33;;;;;;;1.05;0.63;;;;;;;25.59;48.80;100988.88;5054818;28;20025;-60
2022/09/07 01:09:03;;;;;;;2.70;0.73;;;;;;;25.60;48.24;100986.97;5055889;28;20435;-60
2022/09/07 01:11:30;;;;;;;3.55;0.82;;;;;;;25.59;48.66;100991.63;5054749;28;20108;-60
2022/09/07 01:13:57;;;;;;;2.83;0.40;;;;;;;25.61;48.66;100994.13;5055643;28;20070;-60
2022/09/07 01:16:33;;;;;;;1.83;0.63;;;;;;;25.63;49.11;100989.28;5055651;28;20051;-60
2022/09/07 01:19:36;;;;;;;2.92;0.70;;;;;;;25.64;48.40;100980.81;5055752;28;20055;-60
2022/09/07 01:22:19;;;;;;;4.95;0.98;;;;;;;25.64;48.75;100980.81;5055427;28;20049;-60
2022/09/07 01:24:48;;;;;;;2.10;0.85;;;;;;;25.69;49.02;100982.88;5054380;28;20071;-60
2022/09/07 01:27:21;;;;;;;1.10;0.70;;;;;;;25.74;48.55;100992.13;5055406;28;20040;-59
2022/09/07 01:30:07;;;;;;;2.65;0.70;;;;;;;25.78;48.75;100987.88;5055911;28;20571;-59
2022/09/07 01:32:46;;;;;;;3.60;0.73;;;;;;;25.77;48.58;100983.44;5054235;28;20482;-61
2022/09/07 01:35:42;;;;;;;2.70;0.70;;;;;;;25.85;48.30;100987.81;5053129;28;20078;-61
2022/09/07 01:38:46;;;;;;;1.27;0.52;;;;;;;25.88;48.60;100987.38;5054435;28;20032;-61
2022/09/07 01:41:41;;;;;;;1.85;0.60;;;;;;;25.90;47.46;100975.09;5053980;28;20108;-60
2022/09/07 01:44:19;;;;;;;2.80;0.50;;;;;;;25.93;48.37;100980.13;5053187;28;20612;-61
2022/09/07 01:46:53;;;;;;;0.52;0.50;;;;;;;25.95;48.11;100977.16;5053971;28;20082;-61
2022/09/07 01:49:22;;;;;;;0.30;0.30;;;;;;;25.93;48.38;100980.13;5054180;28;20108;-61
2022/09/07 01:51:53;;;;;;;2.42;0.60;;;;;;;25.90;48.30;100975.09;5053730;28;20024;-61
2022/09/07 01:54:27;;;;;;;0.75;0.45;;;;;;;25.87;48.02;100985.69;5053846;28;20103;-61
2022/09/07 01:56:56;;;;;;;1.02;0.93;;;;;;;25.90;47.95;100987.97;5054971;28;20382;-61
2022/09/07 01:59:49;;;;;;;2.70;0.60;;;;;;;25.86;48.11;100982.09;5054113;28;20074;-59
2022/09/07 02:02:22;;;;;;;0.98;0.85;;;;;;;25.83;48.06;100978.94;5036070;28;20044;-59
2022/09/07 02:04:55;;;;;;;1.45;0.68;;;;;;;25.79;48.38;100981.31;5054886;28;20282;-60
2022/09/07 02:07:26;;;;;;;0.85;0.38;;;;;;;25.78;48.51;100973.28;5036777;28;20032;-60
2022/09/07 02:09:56;;;;;;;0.75;0.68;;;;;;;25.74;48.47;100975.66;5053475;28;20371;-59
2022/09/07 02:12:31;;;;;;;3.53;0.70;;;;;;;25.74;48.51;100972.91;5053446;28;20086;-60
2022/09/07 02:15:08;;;;;;;1.95;0.68;;;;;;;25.66;48.30;100967.69;5054435;28;20524;-60
2022/09/07 02:17:40;;;;;;;3.38;0.93;;;;;;;25.68;48.12;100982.06;5054557;28;20533;-60
2022/09/07 02:20:12;;;;;;;3.40;0.77;;;;;;;25.65;48.45;100976.16;5054557;28;20044;-60
2022/09/07 02:22:41;;;;;;;0.60;0.60;;;;;;;25.64;48.09;100986.31;5053154;28;20049;-60
2022/09/07 02:25:08;;;;;;;0.65;0.50;;;;;;;25.61;48.01;100980.41;5054409;28;20029;-60
2022/09/07 02:28:25;;;;;;;0.68;0.60;;;;;;;25.59;48.70;100983.38;5054204;28;20075;-60
2022/09/07 02:30:51;;;;;;;0.50;0.50;;;;;;;25.57;48.54;100985.53;5050968;28;20045;-60
2022/09/07 02:33:16;;;;;;;2.70;1.02;;;;;;;25.54;48.19;100979.63;5054317;28;20563;-59
2022/09/07 02:35:42;;;;;;;1.83;0.70;;;;;;;25.55;48.07;100982.13;5054222;28;20028;-60
2022/09/07 02:38:07;;;;;;;1.10;0.80;;;;;;;25.56;47.99;100972.88;5054199;28;20093;-59
2022/09/07 02:40:33;;;;;;;0.70;0.55;;;;;;;25.57;48.19;100968.22;5053967;28;20399;-60
2022/09/07 02:43:01;;;;;;;6.18;0.90;;;;;;;25.55;48.63;100965.69;5054065;28;20505;-60
2022/09/07 02:45:34;;;;;;;1.92;0.90;;;;;;;25.55;48.35;100965.69;5052832;28;20025;-59
2022/09/07 02:48:26;;;;;;;1.65;1.30;;;;;;;25.52;48.30;100971.63;5052690;28;20501;-60
2022/09/07 02:51:17;;;;;;;1.60;0.77;;;;;;;25.51;48.31;100982.81;5052952;28;20037;-60
2022/09/07 02:54:04;;;;;;;0.90;0.88;;;;;;;25.46;48.36;100983.47;5053054;28;20045;-60
2022/09/07 02:56:47;;;;;;;1.15;0.57;;;;;;;25.46;48.24;100983.47;5033845;28;20032;-59
2022/09/07 02:59:12;;;;;;;;;;;;;;;25.45;47.98;100981.78;5034310;28;20108;-59
2022/09/07 03:01:54;;;;;;;2.07;0.73;;;;;;;25.43;48.08;100975.69;5033845;28;19952;-59
2022/09/07 03:04:27;;;;;;;0.90;0.90;;;;;;;25.41;48.08;100966.81;5032912;28;20665;-59
2022/09/07 03:07:05;;;;;;;4.38;0.82;;;;;;;25.38;48.23;100964.50;5033834;28;20083;-60
2022/09/07 03:09:35;;;;;;;1.60;0.90;;;;;;;25.35;48.62;100967.69;5032543;28;20029;-60
2022/09/07 03:12:07;;;;;;;2.13;0.70;;;;;;;25.32;48.45;100976.41;5015878;28;20029;-60
2022/09/07 03:14:34;;;;;;;4.78;0.98;;;;;;;25.31;47.99;100971.97;5045475;28;20078;-60
2022/09/07 03:17:03;;;;;;;1.40;0.80;;;;;;;25.28;48.63;100969.66;5052296;28;20040;-59
2022/09/07 03:19:28;;;;;;;3.03;0.80;;;;;;;25.20;48.19;100950.75;5053449;28;20025;-59
2022/09/07 03:21:54;;;;;;;5.20;1.05;;;;;;;25.23;48.74;100950.28;5052032;28;20461;-60
2022/09/07 03:24:19;;;;;;;0.65;0.65;;;;;;;25.24;48.54;100947.31;5053434;28;20055;-59
2022/09/07 03:26:47;;;;;;;1.60;0.77;;;;;;;25.21;48.41;100938.72;5053363;28;20025;-60
2022/09/07 03:29:13;;;;;;;2.20;0.75;;;;;;;25.20;48.37;100934.28;5053279;28;20120;-59
2022/09/07 03:31:38;;;;;;;2.33;0.68;;;;;;;25.19;48.90;100943.56;5052050;28;20067;-60
2022/09/07 03:34:03;;;;;;;1.67;0.95;;;;;;;25.16;48.49;100936.63;5053124;28;20032;-59
2022/09/07 03:36:29;;;;;;;2.88;0.77;;;;;;;25.17;48.34;100940.22;5053285;28;20025;-60
2022/09/07 03:38:55;;;;;;;1.35;0.70;;;;;;;25.14;48.42;100938.75;5052079;28;20032;-59
2022/09/07 03:41:20;;;;;;;0.65;0.60;;;;;;;25.14;48.97;100935.16;5053035;28;20033;-59
2022/09/07 03:43:47;;;;;;;1.08;0.65;;;;;;;25.07;48.37;100928.91;5051931;28;20033;-60
2022/09/07 03:46:16;;;;;;;3.40;0.60;;;;;;;25.06;48.54;100932.69;5052935;28;20090;-59
2022/09/07 03:48:42;;;;;;;1.40;0.73;;;;;;;25.06;48.32;100944.50;5053272;28;20109;-59
2022/09/07 03:51:09;;;;;;;0.50;0.50;;;;;;;25.07;48.45;100950.84;5053125;28;20052;-59
2022/09/07 03:53:36;;;;;;;4.43;0.77;;;;;;;25.07;48.50;100953.56;5051798;28;20444;-59
2022/09/07 03:56:05;;;;;;;4.40;0.93;;;;;;;25.05;48.34;100953.78;5052054;28;20474;-59
2022/09/07 03:58:32;;;;;;;1.90;0.85;;;;;;;25.06;48.79;100949.16;5055958;28;20420;-60
2022/09/07 04:00:58;;;;;;;3.55;0.85;;;;;;;25.04;49.47;100938.41;5055959;28;20021;-60
2022/09/07 04:03:24;;;;;;;1.48;1.00;;;;;;;25.03;48.36;100950.44;5057049;28;20494;-60
2022/09/07 04:05:49;;;;;;;1.77;0.70;;;;;;;25.01;48.70;100946.22;5056161;28;20031;-60
2022/09/07 04:08:15;;;;;;;1.90;0.80;;;;;;;24.98;48.59;100938.44;5055757;28;20032;-60
2022/09/07 04:10:40;;;;;;;1.85;0.70;;;;;;;24.98;48.74;100939.28;5057017;28;20056;-59
2022/09/07 04:13:06;;;;;;;0.60;0.60;;;;;;;24.99;48.97;100942.84;5057172;28;20082;-59
2022/09/07 04:15:32;;;;;;;1.15;1.05;;;;;;;25.02;48.53;100948.75;5057098;28;20024;-60
2022/09/07 04:17:58;;;;;;;0.82;0.73;;;;;;;25.03;49.23;100944.09;5056816;28;20396;-60
2022/09/07 04:20:24;;;;;;;3.00;0.93;;;;;;;25.03;48.84;100946.84;5056811;28;20029;-60
2022/09/07 04:22:50;;;;;;;4.93;1.05;;;;;;;25.04;48.74;100940.31;5056621;28;20152;-59
2022/09/07 04:25:16;;;;;;;3.20;1.08;;;;;;;25.04;48.92;100935.66;5056636;28;20486;-60
2022/09/07 04:27:41;;;;;;;3.67;1.00;;;;;;;25.03;48.83;100924.91;5056470;28;20037;-59
2022/09/07 04:30:07;;;;;;;1.88;1.20;;;;;;;25.03;49.19;100927.66;5057056;28;20467;-59
2022/09/07 04:32:33;;;;;;;6.35;1.08;;;;;;;25.04;48.81;100929.34;5039011;28;20036;-59
2022/09/07 04:34:58;;;;;;;1.90;1.00;;;;;;;25.03;48.53;100935.88;5036581;28;20391;-60
2022/09/07 04:37:23;;;;;;;4.03;0.85;;;;;;;25.02;48.80;100936.94;5036504;28;20414;-59
2022/09/07 04:39:49;;;;;;;2.15;0.98;;;;;;;25.00;48.58;100939.91;5035271;28;20044;-60
2022/09/07 04:42:14;;;;;;;1.92;0.82;;;;;;;24.94;49.14;100939.94;5036447;28;20025;-59
2022/09/07 04:44:39;;;;;;;3.85;1.20;;;;;;;24.93;48.92;100947.31;5018628;28;20033;-59
2022/09/07 04:47:05;;;;;;;3.20;1.00;;;;;;;24.94;49.05;100950.91;5036294;28;20056;-60
2022/09/07 04:49:30;;;;;;;2.10;1.02;;;;;;;24.94;49.38;100951.75;5036329;28;20041;-60
2022/09/07 04:51:56;;;;;;;1.23;0.75;;;;;;;24.94;48.89;100957.22;5045606;28;20025;-59
2022/09/07 04:54:21;;;;;;;3.17;1.30;;;;;;;24.95;48.91;100952.59;5056166;28;20037;-59
2022/09/07 04:56:46;;;;;;;6.30;1.70;;;;;;;24.90;49.41;100959.56;5056117;28;20032;-60
2022/09/07 04:59:12;;;;;;;3.53;1.65;;;;;;;24.95;49.11;100969.88;5055972;28;20025;-59
2022/09/07 05:01:37;;;;;;;2.25;1.77;;;;;;;24.94;49.58;100956.38;5055984;28;20033;-59
2022/09/07 05:04:03;;;;;;;1.90;1.60;;;;;;;24.96;49.33;100959.75;5055964;28;20540;-59
2022/09/07 05:06:28;;;;;;;3.92;2.00;;;;;;;25.01;48.96;100962.69;5054771;28;20043;-59
2022/09/07 05:08:54;;;;;;;2.42;1.55;;;;;;;25.04;49.33;100962.25;5054547;28;20029;-59
2022/09/07 05:11:21;;;;;;;5.60;2.10;;;;;;;25.05;49.28;100961.16;5055671;28;20036;-59
2022/09/07 05:13:47;;;;;;;2.75;2.22;;;;;;;25.07;49.57;100950.84;5055711;28;20053;-60
2022/09/07 05:16:14;;;;;;;5.82;1.98;;;;;;;25.13;50.02;100958.16;5055758;28;20063;-59
2022/09/07 05:18:39;;;;;;;8.07;2.83;;;;;;;25.14;49.80;100929.69;5054551;28;20028;-60
2022/09/07 05:21:14;;;;;;;6.82;2.25;;;;;;;25.18;49.40;100930.94;5054529;28;20482;-60
2022/09/07 05:23:39;;;;;;;4.72;2.63;;;;;;;25.20;49.56;100928.81;5054143;28;20127;-59
2022/09/07 05:26:05;;;;;;;6.53;3.08;;;;;;;25.22;49.58;100937.63;5055552;28;20067;-60
2022/09/07 05:28:32;;;;;;;7.53;2.58;;;;;;;25.23;50.11;100955.78;5055534;28;20432;-60
2022/09/07 05:31:09;;;;;;;4.43;2.92;;;;;;;25.24;50.31;100968.41;5055299;28;20108;-60
2022/09/07 05:33:34;;;;;;;5.55;2.67;;;;;;;25.25;50.03;100965.47;5055442;28;20021;-60
2022/09/07 05:36:00;;;;;;;4.95;2.20;;;;;;;25.28;49.97;100955.94;5055412;28;20371;-60
2022/09/07 05:38:26;;;;;;;4.82;2.38;;;;;;;25.29;50.46;100961.19;5046518;28;20061;-60
2022/09/07 05:40:51;;;;;;;6.65;2.70;;;;;;;25.31;49.63;100959.09;5037772;28;20034;-59
2022/09/07 05:43:17;;;;;;;3.72;2.47;;;;;;;25.30;49.75;100948.34;5037523;28;20079;-59
2022/09/07 05:45:42;;;;;;;6.95;2.47;;;;;;;25.33;49.80;100956.13;5035268;28;20100;-59
2022/09/07 05:48:08;;;;;;;6.15;2.92;;;;;;;25.30;49.90;100959.31;5035386;28;20029;-60
2022/09/07 05:50:34;;;;;;;8.65;2.67;;;;;;;25.27;49.43;100952.38;5033950;28;20037;-60
2022/09/07 05:53:00;;;;;;;3.17;2.42;;;;;;;25.24;49.93;100971.16;5034998;28;20029;-60
2022/09/07 05:55:25;;;;;;;3.70;3.30;;;;;;;25.21;50.05;100988.91;5045974;28;20378;-60
2022/09/07 05:57:50;;;;;;;5.55;2.60;;;;;;;25.19;50.11;100992.91;5054901;28;20501;-60
2022/09/07 06:00:16;;;;;;;6.63;2.45;;;;;;;25.17;50.55;100995.06;5036886;28;20033;-60
2022/09/07 06:02:41;;;;;;;5.07;2.95;;;;;;;25.12;49.76;100997.63;5053600;28;20456;-60
2022/09/07 06:05:09;;;;;;;6.57;3.15;;;;;;;25.09;50.47;100992.56;5053686;28;20029;-60
2022/09/07 06:07:35;;;;;;;6.75;3.25;;;;;;;25.07;50.11;100983.75;5053837;28;20059;-60
2022/09/07 06:10:00;;;;;;;9.43;3.65;;;;;;;25.06;50.33;100985.63;5048917;28;20099;-60
2022/09/07 06:12:26;;;;;;;5.00;3.17;;;;;;;25.08;50.67;100993.63;5034752;28;20118;-60
2022/09/07 06:14:51;;;;;;;4.07;3.05;;;;;;;25.08;50.45;100993.63;5033349;28;20514;-60
2022/09/07 06:17:16;;;;;;;3.33;2.70;;;;;;;25.11;49.95;101007.75;5033478;28;20029;-60
2022/09/07 06:19:42;;;;;;;6.53;3.10;;;;;;;25.13;50.00;101010.25;5034253;28;20033;-60
2022/09/07 06:22:07;;;;;;;5.15;2.72;;;;;;;25.11;50.78;101005.00;5034397;28;20128;-60
2022/09/07 06:24:32;;;;;;;6.82;2.25;;;;;;;25.03;50.32;101002.53;5034544;28;20029;-60
2022/09/07 06:26:58;;;;;;;5.85;3.25;;;;;;;25.05;50.80;101013.25;5034575;28;20538;-60
2022/09/07 06:29:23;;;;;;;5.00;3.03;;;;;;;24.96;50.24;101003.63;5034761;28;20103;-60
2022/09/07 06:31:48;;;;;;;6.78;3.50;;;;;;;24.85;50.93;101005.97;5034626;28;20055;-63
2022/09/07 06:34:14;;;;;;;6.15;3.15;;;;;;;24.78;51.06;100996.91;5041353;28;20033;-61
2022/09/07 06:36:39;;;;;;;11.73;3.42;;;;;;;24.71;51.41;101000.72;5054191;28;20091;-61
2022/09/07 06:39:04;;;;;;;5.20;3.63;;;;;;;24.68;50.98;100995.72;5054112;28;20025;-60
2022/09/07 06:41:30;;;;;;;8.77;3.22;;;;;;;24.64;50.78;101005.41;5054256;28;20482;-60
2022/09/07 06:43:56;;;;;;;7.32;3.50;;;;;;;24.61;51.41;101006.69;5052931;28;20052;-60
2022/09/07 06:46:22;;;;;;;7.68;2.95;;;;;;;24.62;51.84;101015.75;5052849;28;20429;-60
2022/09/07 06:48:54;;;;;;;5.50;3.08;;;;;;;24.61;51.69;101022.28;5053912;28;20055;-59
2022/09/07 06:51:25;;;;;;;4.53;3.17;;;;;;;24.64;51.68;101025.44;5053088;28;20370;-60
2022/09/07 06:53:50;;;;;;;7.82;2.88;;;;;;;24.64;51.73;101022.69;5053992;28;20041;-60
2022/09/07 06:56:17;;;;;;;4.88;2.95;;;;;;;24.63;51.74;101029.22;5052854;28;20398;-60
2022/09/07 06:58:43;;;;;;;3.72;2.50;;;;;;;24.60;51.47;101021.44;5053834;28;20032;-60
2022/09/07 07:01:16;;;;;;;4.38;2.47;;;;;;;24.65;51.84;101026.28;5053732;28;20025;-60
2022/09/07 07:03:42;;;;;;;3.90;2.30;;;;;;;24.71;51.56;101026.22;5053627;28;20432;-60
2022/09/07 07:06:08;;;;;;;4.38;2.63;;;;;;;24.78;51.22;101029.81;5053712;28;20099;-60
2022/09/07 07:08:34;;;;;;;5.45;2.38;;;;;;;24.84;51.19;101022.66;5053587;28;20481;-60
2022/09/07 07:11:01;;;;;;;5.07;1.90;;;;;;;24.90;51.40;101019.84;5053486;28;20037;-60
2022/09/07 07:13:27;;;;;;;3.90;1.90;;;;;;;24.98;51.49;101017.94;5053596;28;20116;-60
2022/09/07 07:15:52;;;;;;;6.97;2.13;;;;;;;25.09;50.97;101020.84;5053430;28;20107;-60
2022/09/07 07:18:18;;;;;;;3.40;1.88;;;;;;;25.14;51.23;101011.94;5052204;28;20052;-60
2022/09/07 07:20:44;;;;;;;3.05;2.10;;;;;;;25.21;51.03;101012.75;5052177;28;20441;-60
2022/09/07 07:23:11;;;;;;;12.55;1.95;;;;;;;25.21;51.23;101008.09;5036128;28;20132;-60
2022/09/07 07:25:36;;;;;;;3.17;2.13;;;;;;;25.27;50.88;101011.84;5037090;28;20467;-60
2022/09/07 07:28:03;;;;;;;5.85;2.50;;;;;;;25.35;50.93;101025.31;5037407;28;20028;-60
2022/09/07 07:30:28;;;;;;;4.55;1.98;;;;;;;25.44;50.72;101026.72;5033366;28;20403;-60
2022/09/07 07:32:58;;;;;;;3.50;2.00;;;;;;;25.58;50.92;101024.75;5051118;28;20025;-60
2022/09/07 07:35:25;;;;;;;5.40;2.10;;;;;;;25.73;50.58;101028.88;5053209;28;20033;-60
2022/09/07 07:37:51;;;;;;;3.30;2.17;;;;;;;25.88;50.20;101021.13;5053286;28;20547;-60
2022/09/07 07:40:17;;;;;;;2.63;1.83;;;;;;;26.03;50.44;101018.03;5052271;28;20104;-60
2022/09/07 07:42:42;;;;;;;2.75;1.92;;;;;;;26.18;50.57;101020.47;5053416;28;20048;-60
2022/09/07 07:45:09;;;;;;;5.05;2.28;;;;;;;26.32;50.30;101024.78;5053061;28;20025;-60
2022/09/07 07:47:35;;;;;;;10.27;3.65;;;;;;;26.54;49.61;101031.50;5052860;28;20120;-60
2022/09/07 07:50:05;;;;;;;6.82;2.28;;;;;;;26.64;49.66;101034.53;5053260;28;20104;-60
2022/09/07 07:52:35;;;;;;;5.80;2.13;;;;;;;26.85;49.67;101028.63;5053121;28;20542;-60
2022/09/07 07:55:01;;;;;;;4.80;2.40;;;;;;;27.31;49.30;101027.13;5053273;28;20036;-60
2022/09/07 07:57:26;;;;;;;6.20;2.03;;;;;;;27.90;48.72;101034.50;5053265;28;20470;-60
2022/09/07 07:59:52;;;;;;;4.00;2.10;;;;;;;28.11;48.89;101040.28;5052866;28;20020;-60
2022/09/07 08:02:17;;;;;;;2.95;1.98;;;;;;;28.44;47.74;101041.59;5053091;28;20128;-61
2022/09/07 08:04:43;;;;;;;3.30;1.90;;;;;;;28.72;48.43;101037.03;5052944;28;20029;-60
2022/09/07 08:07:10;;;;;;;3.67;1.83;;;;;;;29.21;47.41;101032.78;5053237;28;20428;-60
2022/09/07 08:09:43;;;;;;;4.05;1.52;;;;;;;29.62;46.70;101039.13;5052871;28;20398;-60
2022/09/07 08:12:11;;;;;;;6.05;2.30;;;;;;;29.96;46.97;101038.06;5051826;28;20033;-61
2022/09/07 08:14:39;;;;;;;5.50;2.50;;;;;;;30.23;46.53;101041.81;5052842;28;20092;-60
2022/09/07 08:17:05;;;;;;;6.30;2.10;;;;;;;30.65;46.31;101041.34;5052895;28;20025;-61
2022/09/07 08:19:30;;;;;;;4.55;1.63;;;;;;;30.84;45.79;101039.94;5052736;28;20083;-60
2022/09/07 08:21:56;;;;;;;2.45;1.77;;;;;;;31.01;45.25;101035.19;5044275;28;20036;-61
2022/09/07 08:24:21;;;;;;;5.32;1.60;;;;;;;31.18;45.35;101035.09;5050025;28;20037;-61
2022/09/07 08:26:46;;;;;;;5.85;2.80;;;;;;;31.27;45.06;101030.78;5051266;28;20060;-60
2022/09/07 08:29:12;;;;;;;5.55;1.48;;;;;;;31.60;44.47;101034.19;5031664;28;20045;-61
2022/09/07 08:31:37;;;;;;;2.90;1.55;;;;;;;31.74;44.00;101040.16;5032799;28;20125;-61
2022/09/07 08:34:02;;;;;;;2.83;1.30;;;;;;;32.07;43.92;101033.50;5032824;28;20065;-61
2022/09/07 08:36:30;;;;;;;2.15;1.75;;;;;;;32.17;43.71;101041.88;5032871;28;20033;-61
2022/09/07 08:38:56;;;;;;;3.72;1.35;;;;;;;32.35;43.75;101047.03;5032977;28;20026;-60
2022/09/07 08:42:02;;;;;;;2.13;1.65;;;;;;;32.57;42.34;101047.75;5051372;28;20383;-60
2022/09/07 08:44:33;;;;;;;3.25;1.77;;;;;;;32.70;43.40;101047.25;5053752;28;20032;-61
2022/09/07 08:47:17;;;;;;;3.22;1.95;;;;;;;32.51;43.09;101048.78;5038436;28;20028;-60
2022/09/07 08:49:53;;;;;;;6.97;1.67;;;;;;;32.77;42.46;101050.63;5056264;28;20453;-61
2022/09/07 08:52:47;;;;;;;3.97;2.00;;;;;;;32.93;41.76;101053.44;5054996;28;20394;-61
2022/09/07 08:55:20;;;;;;;7.32;2.50;;;;;;;33.03;42.50;101053.50;5055378;28;20435;-60
2022/09/07 08:57:50;;;;;;;2.08;1.58;;;;;;;33.24;42.27;101045.00;5056093;28;20029;-61
2022/09/07 09:00:17;;;;;;;2.95;2.08;;;;;;;33.11;41.92;101053.00;5054922;28;20023;-61
2022/09/07 09:02:42;;;;;;;5.80;1.90;;;;;;;33.49;41.68;101060.03;5054791;28;20036;-61
2022/09/07 09:05:28;;;;;;;5.50;1.85;;;;;;;33.62;40.79;101063.16;5054717;28;20025;-61
2022/09/07 09:08:09;;;;;;;3.65;2.25;;;;;;;33.45;41.02;101068.09;5055781;28;20031;-62
2022/09/07 09:10:55;;;;;;;4.70;2.55;;;;;;;33.60;40.34;101070.09;5054572;28;20031;-61
2022/09/07 09:13:38;;;;;;;4.18;2.28;;;;;;;33.44;40.68;101063.66;5055132;28;20565;-60
2022/09/07 09:16:12;;;;;;;4.72;2.35;;;;;;;33.49;40.33;101062.81;5055695;28;20155;-61
2022/09/07 09:18:54;;;;;;;3.95;1.63;;;;;;;33.61;40.91;101069.84;5054553;28;20029;-62
2022/09/07 09:21:23;;;;;;;4.95;2.17;;;;;;;33.80;41.17;101084.03;5055535;28;20025;-61
2022/09/07 09:23:52;;;;;;;4.32;2.90;;;;;;;33.68;39.89;101073.16;5055445;28;20053;-61
2022/09/07 09:26:25;;;;;;;10.32;2.60;;;;;;;33.28;40.81;101078.59;5054392;28;20017;-61
2022/09/07 09:28:51;;;;;;;4.22;2.80;;;;;;;33.69;40.81;101083.19;5054254;28;20040;-61
2022/09/07 09:31:38;;;;;;;5.70;2.85;;;;;;;34.20;39.72;101083.25;5054280;28;20037;-61
2022/09/07 09:34:09;;;;;;;3.63;2.47;;;;;;;34.43;39.34;101090.97;5055296;28;20033;-61
2022/09/07 09:36:46;;;;;;;4.90;2.47;;;;;;;34.66;39.89;101084.84;5055646;28;20028;-61
2022/09/07 09:39:26;;;;;;;3.88;2.20;;;;;;;35.01;38.61;101076.34;5055121;28;20017;-61
2022/09/07 09:41:54;;;;;;;2.13;1.75;;;;;;;35.50;38.08;101073.63;5054157;28;20024;-61
2022/09/07 09:44:20;;;;;;;2.13;1.90;;;;;;;36.15;38.06;101069.56;5054041;28;20498;-61
2022/09/07 09:46:51;;;;;;;4.20;2.35;;;;;;;37.21;37.05;101071.19;5055113;28;20104;-59
2022/09/07 09:49:17;;;;;;;2.75;2.17;;;;;;;39.02;34.16;101066.41;5055070;28;20060;-60
2022/09/07 09:51:51;;;;;;;3.45;1.70;;;;;;;40.26;32.36;101068.53;5055068;28;20056;-62
2022/09/07 09:54:40;;;;;;;4.38;2.17;;;;;;;39.56;33.02;101066.31;5054718;28;20032;-59
2022/09/07 09:57:14;;;;;;;5.50;1.42;;;;;;;39.16;33.69;101055.19;5053398;28;20021;-59
2022/09/07 09:59:39;;;;;;;2.80;1.55;;;;;;;38.13;34.83;101067.84;5054910;28;20107;-62
2022/09/07 10:02:27;;;;;;;3.72;1.70;;;;;;;37.33;35.77;101068.75;5054786;28;20063;-61
2022/09/07 10:04:53;;;;;;;1.90;1.02;;;;;;;36.99;35.38;101070.94;5054830;28;20021;-61
2022/09/07 10:07:25;;;;;;;2.50;1.33;;;;;;;37.26;34.92;101070.28;5054747;28;20029;-61
2022/09/07 10:09:52;;;;;;;2.92;1.10;;;;;;;36.99;35.15;101065.34;5052998;28;20037;-61
2022/09/07 10:12:27;;;;;;;4.53;1.35;;;;;;;36.42;35.33;101074.59;5053560;28;20107;-61
2022/09/07 10:14:55;;;;;;;2.25;0.93;;;;;;;36.12;35.17;101075.72;5054882;28;20017;-62
2022/09/07 10:17:33;;;;;;;4.45;1.10;;;;;;;35.93;35.17;101074.72;5053394;28;20136;-62
2022/09/07 10:20:18;;;;;;;3.70;1.27;;;;;;;35.37;35.98;101067.88;5053310;28;20112;-61
2022/09/07 10:22:53;;;;;;;1.98;1.30;;;;;;;35.23;35.42;101066.81;5042427;28;20088;-61
2022/09/07 10:25:53;;;;;;;2.30;1.00;;;;;;;35.67;35.23;101069.63;5034589;28;20021;-60
2022/09/07 10:28:21;;;;;;;2.83;1.00;;;;;;;36.01;35.04;101062.13;5032193;28;20073;-61
2022/09/07 10:31:09;;;;;;;3.97;0.68;;;;;;;35.93;34.66;101065.53;5032323;28;20046;-61
2022/09/07 10:33:37;;;;;;;2.20;1.10;;;;;;;35.78;34.79;101063.69;5015840;28;20025;-61
2022/09/07 10:36:10;;;;;;;2.33;1.55;;;;;;;35.41;34.66;101068.94;5032302;28;20042;-61
2022/09/07 10:38:44;;;;;;;2.97;0.85;;;;;;;35.02;35.54;101066.88;5015701;28;20021;-61
2022/09/07 10:41:10;;;;;;;3.22;1.35;;;;;;;35.27;35.28;101070.69;5049070;28;20029;-61
2022/09/07 10:43:44;;;;;;;2.78;0.75;;;;;;;35.23;34.97;101062.09;5052042;28;20041;-61
2022/09/07 10:46:30;;;;;;;2.75;0.73;;;;;;;36.54;33.80;101049.94;5051949;28;20508;-61
2022/09/07 10:49:20;;;;;;;1.98;0.82;;;;;;;37.04;33.05;101048.50;5035063;28;20083;-61
2022/09/07 10:52:20;;;;;;;2.10;0.90;;;;;;;37.83;32.35;101044.00;5051915;28;20447;-61
2022/09/07 10:55:06;;;;;;;4.72;0.93;;;;;;;38.50;32.14;101039.72;5018553;28;20032;-61
2022/09/07 10:57:42;;;;;;;3.50;1.15;;;;;;;39.06;31.42;101044.22;5051753;28;20029;-60
2022/09/07 11:00:11;;;;;;;2.33;0.70;;;;;;;39.43;30.08;101041.94;5051797;28;20021;-61
2022/09/07 11:02:58;;;;;;;3.47;1.15;;;;;;;39.70;29.80;101034.63;5044882;28;20037;-60
2022/09/07 11:05:29;;;;;;;3.95;1.33;;;;;;;39.67;30.19;101026.84;5052579;28;20390;-61
2022/09/07 11:08:07;;;;;;;3.08;0.63;;;;;;;39.85;30.12;101034.22;5053594;28;20032;-61
2022/09/07 11:10:56;;;;;;;1.67;0.70;;;;;;;39.90;29.06;101031.28;5053480;28;20033;-61
2022/09/07 11:13:25;;;;;;;3.90;1.10;;;;;;;40.05;29.56;101028.06;5052431;28;20111;-61
2022/09/07 11:15:54;;;;;;;2.08;0.77;;;;;;;40.30;28.93;101030.22;5053802;28;20060;-61
2022/09/07 11:18:24;;;;;;;10.02;1.02;;;;;;;40.60;28.56;101034.19;5053494;28;20021;-61
2022/09/07 11:20:55;;;;;;;3.45;0.60;;;;;;;40.73;28.65;101038.03;5053412;28;20025;-61
2022/09/07 11:23:55;;;;;;;2.70;0.50;;;;;;;40.89;28.18;101031.66;5052048;28;20418;-61
2022/09/07 11:26:38;;;;;;;1.70;0.28;;;;;;;40.85;28.09;101041.03;5052481;28;20438;-61
2022/09/07 11:29:14;;;;;;;4.57;0.60;;;;;;;40.81;28.03;101031.63;5052221;28;20029;-61
2022/09/07 11:31:44;;;;;;;2.45;0.75;;;;;;;40.84;27.40;101028.16;5053228;28;20394;-61
2022/09/07 11:34:20;;;;;;;2.10;1.02;;;;;;;40.71;28.12;101029.13;5053170;28;20123;-61
2022/09/07 11:37:00;;;;;;;3.30;0.57;;;;;;;40.80;27.87;101027.13;5052103;28;20471;-61
2022/09/07 11:39:29;;;;;;;1.42;0.43;;;;;;;40.35;27.99;101027.28;5052060;28;20024;-61
2022/09/07 11:42:19;;;;;;;3.63;0.82;;;;;;;40.16;27.54;101023.88;5051936;28;20494;-61